| time (UTC) | temp C | wind direction | speed KPH | gust KPH | rain 1hr cm | rain 24hr cm | rain mn cm | humidity % | barometer mb |
| 20260502204303 | 23 | 315 | 12.9 | 0.0 | 0.00 | 0.00 | 0.13 | 37 | 1019.6 |
| 20260502202803 | 23 | 0 | 9.7 | 0.0 | 0.00 | 0.00 | 0.13 | 39 | 1019.6 |
| 20260502201302 | 23 | 293 | 25.7 | 0.0 | 0.00 | 0.00 | 0.13 | 40 | 1020.0 |
| 20260502195802 | 22 | 90 | 9.7 | 0.0 | 0.00 | 0.00 | 0.13 | 39 | 1020.3 |
| 20260502194302 | 23 | 0 | 11.3 | 0.0 | 0.00 | 0.00 | 0.13 | 41 | 1020.3 |
| 20260502192802 | 22 | 23 | 6.4 | 0.0 | 0.00 | 0.00 | 0.13 | 40 | 1020.3 |
| 20260502191802 | 22 | 270 | 8.0 | 0.0 | 0.00 | 0.00 | 0.13 | 40 | 1020.3 |
| 20260502190302 | 22 | 23 | 6.4 | 0.0 | 0.00 | 0.00 | 0.13 | 38 | 1020.3 |
| 20260502184802 | 22 | 23 | 9.7 | 0.0 | 0.00 | 0.00 | 0.13 | 43 | 1020.3 |
| 20260502183802 | 22 | 23 | 11.3 | 0.0 | 0.00 | 0.00 | 0.13 | 46 | 1020.7 |
| 20260502182304 | 22 | 293 | 11.3 | 0.0 | 0.00 | 0.00 | 0.13 | 43 | 1021.0 |
| 20260502163802 | 20 | 45 | 11.3 | 0.0 | 0.00 | 0.00 | 0.13 | 51 | 1021.3 |
| 20260502162304 | 20 | 0 | 11.3 | 0.0 | 0.00 | 0.00 | 0.13 | 54 | 1021.3 |
| 20260502160802 | 20 | 23 | 11.3 | 0.0 | 0.00 | 0.00 | 0.13 | 55 | 1021.3 |
| 20260502122802 | 12 | 270 | 3.2 | 0.0 | 0.00 | 0.00 | 0.13 | 94 | 1019.0 |
| 20260502121302 | 12 | 315 | 0.0 | 0.0 | 0.00 | 0.00 | 0.13 | 97 | 1018.6 |
| 20260502115803 | 11 | 338 | 0.0 | 0.0 | 0.00 | 0.00 | 0.13 | 98 | 1018.6 |
| 20260502112802 | 10 | 315 | 0.0 | 0.0 | 0.00 | 0.00 | 0.13 | 98 | 1017.9 |
| 20260502111302 | 10 | 338 | 0.0 | 0.0 | 0.00 | 0.00 | 0.13 | 98 | 1017.6 |
| 20260502110302 | 11 | 315 | 0.0 | 0.0 | 0.00 | 0.00 | 0.13 | 98 | 1017.3 |
| 20260502104803 | 11 | 315 | 0.0 | 0.0 | 0.00 | 0.00 | 0.13 | 98 | 1017.3 |
| 20260502103802 | 11 | 293 | 0.0 | 0.0 | 0.00 | 0.00 | 0.13 | 98 | 1017.3 |
| 20260502102305 | 11 | 338 | 1.6 | 0.0 | 0.00 | 0.00 | 0.13 | 98 | 1017.3 |
| 20260502100802 | 11 | 315 | 4.8 | 0.0 | 0.00 | 0.00 | 0.13 | 98 | 1017.3 |
| 20260502090306 | 11 | 315 | 1.6 | 0.0 | 0.00 | 0.00 | 0.13 | 97 | 1017.3 |
| 20260502064803 | 11 | 23 | 4.8 | 0.0 | 0.00 | 0.00 | 0.13 | 96 | 1017.3 |
| 20260502063302 | 11 | 0 | 6.4 | 0.0 | 0.03 | 0.00 | 0.13 | 96 | 1017.3 |
| 20260502060312 | 11 | 23 | 9.7 | 0.0 | 0.10 | 0.00 | 0.13 | 97 | 1017.6 |
| 20260502054802 | 11 | 68 | 11.3 | 0.0 | 0.15 | 0.00 | 0.13 | 97 | 1017.3 |
| 20260502053304 | 11 | 293 | 6.4 | 0.0 | 0.23 | 0.00 | 0.10 | 97 | 1017.9 |
| 20260502051803 | 11 | 0 | 4.8 | 0.0 | 0.20 | 0.00 | 0.08 | 97 | 1018.3 |
| 20260502050507 | 11 | 45 | 8.0 | 0.0 | 0.20 | 0.00 | 0.03 | 97 | 1017.9 |
| 20260502045802 | 11 | 338 | 9.7 | 0.0 | 0.15 | 0.00 | 0.36 | 97 | 1017.6 |
| 20260502042802 | 11 | 23 | 6.4 | 0.0 | 0.08 | 0.00 | 0.25 | 97 | 1017.6 |
| 20260502041302 | 11 | 45 | 4.8 | 0.0 | 0.08 | 0.00 | 0.20 | 97 | 1017.9 |
| 20260502035802 | 11 | 0 | 9.7 | 0.0 | 0.13 | 0.00 | 0.20 | 97 | 1018.3 |
| 20260502034302 | 11 | 23 | 8.0 | 0.0 | 0.13 | 0.00 | 0.18 | 97 | 1017.6 |
| 20260502025802 | 11 | 23 | 6.4 | 0.0 | 0.00 | 0.00 | 0.05 | 97 | 1017.9 |
| 20260502024302 | 11 | 23 | 11.3 | 0.0 | 0.00 | 0.00 | 0.05 | 97 | 1016.9 |
| 20260502022802 | 11 | 45 | 6.4 | 0.0 | 0.00 | 0.00 | 0.05 | 97 | 1016.3 |
| 20260502021302 | 10 | 45 | 8.0 | 0.0 | 0.00 | 0.00 | 0.05 | 97 | 1016.3 |
| 20260502015803 | 10 | 23 | 8.0 | 0.0 | 0.00 | 0.00 | 0.05 | 97 | 1015.9 |
| 20260502014302 | 10 | 23 | 12.9 | 0.0 | 0.05 | 0.00 | 0.05 | 97 | 1015.6 |
| 20260502012802 | 10 | 23 | 14.5 | 0.0 | 0.05 | 0.00 | 0.05 | 98 | 1014.9 |
| 20260502011302 | 10 | 23 | 9.7 | 0.0 | 0.05 | 0.00 | 0.05 | 98 | 1014.9 |
| 20260502005802 | 11 | 0 | 11.3 | 0.0 | 0.03 | 0.00 | 0.03 | 98 | 1015.2 |
| 20260502004302 | 11 | 338 | 11.3 | 0.0 | 0.20 | 0.00 | 0.28 | 98 | 1015.9 |
| 20260502002802 | 11 | 270 | 4.8 | 0.0 | 0.23 | 0.00 | 0.23 | 98 | 1015.9 |
| 20260501235802 | 11 | 338 | 3.2 | 0.0 | 0.10 | 0.00 | 0.10 | 97 | 1016.6 |
| 20260501232802 | 11 | 315 | 9.7 | 0.0 | 0.03 | 0.00 | 0.03 | 97 | 1015.9 |
| 20260501231302 | 11 | 23 | 6.4 | 0.0 | 0.30 | 0.00 | 0.30 | 97 | 1015.6 |
| 20260501225802 | 11 | 270 | 6.4 | 0.0 | 0.15 | 0.00 | 0.15 | 97 | 1015.6 |
| 20260501224302 | 11 | 0 | 6.4 | 0.0 | 0.00 | 0.00 | 0.00 | 97 | 1015.2 |
| 20260501222802 | 11 | 23 | 3.2 | 0.0 | 0.33 | 0.00 | 1.17 | 97 | 1014.6 |
| 20260501215802 | 11 | 45 | 17.7 | 0.0 | 0.38 | 0.00 | 1.02 | 96 | 1012.9 |
| 20260501214303 | 11 | 23 | 9.7 | 0.0 | 0.46 | 0.00 | 0.91 | 96 | 1013.2 |
| 20260501212802 | 11 | 45 | 17.7 | 0.0 | 0.43 | 0.00 | 0.79 | 96 | 1012.9 |
| 20260501211303 | 11 | 23 | 12.9 | 0.0 | 0.53 | 0.00 | 0.66 | 96 | 1014.2 |
| 20260501205802 | 11 | 45 | 11.3 | 0.0 | 0.51 | 0.00 | 0.56 | 96 | 1013.5 |